sensor_id;sensor_type;location;lat;lon;timestamp;pressure;altitude;pressure_sealevel;temperature;humidity
36380;BME280;22411;53.016;18.632;2023-09-30T00:02:14;100632.16;;;19.00;100.00
36380;BME280;22411;53.016;18.632;2023-09-30T00:04:40;100635.56;;;18.92;100.00
36380;BME280;22411;53.016;18.632;2023-09-30T00:07:06;100637.00;;;18.87;100.00
36380;BME280;22411;53.016;18.632;2023-09-30T00:09:32;100636.34;;;18.85;100.00
36380;BME280;22411;53.016;18.632;2023-09-30T00:11:57;100633.06;;;18.83;100.00
36380;BME280;22411;53.016;18.632;2023-09-30T00:14:23;100632.69;;;18.77;100.00
36380;BME280;22411;53.016;18.632;2023-09-30T00:16:49;100634.47;;;18.77;100.00
36380;BME280;22411;53.016;18.632;2023-09-30T00:19:14;100638.09;;;18.76;100.00
36380;BME280;22411;53.016;18.632;2023-09-30T00:21:40;100644.38;;;18.83;100.00
36380;BME280;22411;53.016;18.632;2023-09-30T00:24:06;100636.03;;;18.88;100.00
36380;BME280;22411;53.016;18.632;2023-09-30T00:26:32;100633.91;;;18.91;100.00
36380;BME280;22411;53.016;18.632;2023-09-30T00:28:57;100632.63;;;18.95;100.00
36380;BME280;22411;53.016;18.632;2023-09-30T00:31:23;100636.59;;;18.99;100.00
36380;BME280;22411;53.016;18.632;2023-09-30T00:33:49;100633.97;;;18.99;100.00
36380;BME280;22411;53.016;18.632;2023-09-30T00:36:15;100630.53;;;18.99;100.00
36380;BME280;22411;53.016;18.632;2023-09-30T00:38:41;100632.47;;;18.97;100.00
36380;BME280;22411;53.016;18.632;2023-09-30T00:41:07;100618.50;;;18.96;100.00
36380;BME280;22411;53.016;18.632;2023-09-30T00:43:33;100619.97;;;18.91;100.00
36380;BME280;22411;53.016;18.632;2023-09-30T00:46:11;100615.63;;;18.81;100.00
36380;BME280;22411;53.016;18.632;2023-09-30T00:48:40;100619.69;;;18.76;100.00
36380;BME280;22411;53.016;18.632;2023-09-30T00:51:06;100612.16;;;18.73;100.00
36380;BME280;22411;53.016;18.632;2023-09-30T00:53:32;100614.41;;;18.68;100.00
36380;BME280;22411;53.016;18.632;2023-09-30T00:55:58;100617.31;;;18.65;100.00
36380;BME280;22411;53.016;18.632;2023-09-30T00:58:25;100613.44;;;18.69;100.00
36380;BME280;22411;53.016;18.632;2023-09-30T01:00:56;100618.41;;;18.72;100.00
36380;BME280;22411;53.016;18.632;2023-09-30T01:03:22;100619.88;;;18.74;100.00
36380;BME280;22411;53.016;18.632;2023-09-30T01:05:48;100612.66;;;18.76;100.00
36380;BME280;22411;53.016;18.632;2023-09-30T01:08:16;100615.97;;;18.78;100.00
36380;BME280;22411;53.016;18.632;2023-09-30T01:10:42;100622.56;;;18.83;100.00
36380;BME280;22411;53.016;18.632;2023-09-30T01:13:08;100626.97;;;18.82;100.00
36380;BME280;22411;53.016;18.632;2023-09-30T01:15:33;100614.81;;;18.81;100.00
36380;BME280;22411;53.016;18.632;2023-09-30T01:18:00;100605.59;;;18.77;100.00
36380;BME280;22411;53.016;18.632;2023-09-30T01:20:25;100614.97;;;18.79;100.00
36380;BME280;22411;53.016;18.632;2023-09-30T01:22:53;100612.34;;;18.79;100.00
36380;BME280;22411;53.016;18.632;2023-09-30T01:25:20;100610.84;;;18.77;100.00
36380;BME280;22411;53.016;18.632;2023-09-30T01:27:47;100609.22;;;18.76;100.00
36380;BME280;22411;53.016;18.632;2023-09-30T01:30:13;100613.78;;;18.74;100.00
36380;BME280;22411;53.016;18.632;2023-09-30T01:32:40;100612.28;;;18.71;100.00
36380;BME280;22411;53.016;18.632;2023-09-30T01:35:06;100613.13;;;18.72;100.00
36380;BME280;22411;53.016;18.632;2023-09-30T01:37:32;100617.41;;;18.73;100.00
36380;BME280;22411;53.016;18.632;2023-09-30T01:39:57;100617.25;;;18.74;100.00
36380;BME280;22411;53.016;18.632;2023-09-30T01:42:23;100612.50;;;18.78;100.00
36380;BME280;22411;53.016;18.632;2023-09-30T01:44:49;100611.38;;;18.80;100.00
36380;BME280;22411;53.016;18.632;2023-09-30T01:47:15;100614.69;;;18.83;100.00
36380;BME280;22411;53.016;18.632;2023-09-30T01:49:40;100627.19;;;18.89;100.00
36380;BME280;22411;53.016;18.632;2023-09-30T01:52:06;100626.72;;;18.93;100.00
36380;BME280;22411;53.016;18.632;2023-09-30T01:54:32;100635.72;;;18.91;100.00
36380;BME280;22411;53.016;18.632;2023-09-30T01:56:58;100635.41;;;18.94;100.00
36380;BME280;22411;53.016;18.632;2023-09-30T01:59:24;100630.66;;;18.97;100.00
36380;BME280;22411;53.016;18.632;2023-09-30T02:01:50;100637.53;;;18.90;100.00
36380;BME280;22411;53.016;18.632;2023-09-30T02:04:15;100630.31;;;18.92;100.00
36380;BME280;22411;53.016;18.632;2023-09-30T02:06:41;100635.88;;;18.89;100.00
36380;BME280;22411;53.016;18.632;2023-09-30T02:09:07;100635.41;;;18.94;100.00
36380;BME280;22411;53.016;18.632;2023-09-30T02:11:35;100638.03;;;18.94;100.00
36380;BME280;22411;53.016;18.632;2023-09-30T02:14:04;100635.41;;;18.94;100.00
36380;BME280;22411;53.016;18.632;2023-09-30T02:16:33;100647.47;;;19.13;100.00
36380;BME280;22411;53.016;18.632;2023-09-30T02:18:58;100641.59;;;19.19;100.00
36380;BME280;22411;53.016;18.632;2023-09-30T02:21:24;100642.41;;;19.19;100.00
36380;BME280;22411;53.016;18.632;2023-09-30T02:23:50;100636.50;;;19.09;100.00
36380;BME280;22411;53.016;18.632;2023-09-30T02:26:21;100637.13;;;19.11;100.00
36380;BME280;22411;53.016;18.632;2023-09-30T02:28:47;100639.78;;;19.11;100.00
36380;BME280;22411;53.016;18.632;2023-09-30T02:31:13;100640.63;;;19.20;100.00
36380;BME280;22411;53.016;18.632;2023-09-30T02:33:38;100641.13;;;19.23;100.00
36380;BME280;22411;53.016;18.632;2023-09-30T02:36:08;100645.59;;;19.31;100.00
36380;BME280;22411;53.016;18.632;2023-09-30T02:38:34;100638.22;;;19.34;100.00
36380;BME280;22411;53.016;18.632;2023-09-30T02:41:03;100636.28;;;19.37;100.00
36380;BME280;22411;53.016;18.632;2023-09-30T02:43:28;100634.75;;;19.34;100.00
36380;BME280;22411;53.016;18.632;2023-09-30T02:45:54;100633.78;;;19.35;100.00
36380;BME280;22411;53.016;18.632;2023-09-30T02:48:20;100632.13;;;19.34;100.00
36380;BME280;22411;53.016;18.632;2023-09-30T02:50:46;100635.75;;;19.33;100.00
36380;BME280;22411;53.016;18.632;2023-09-30T02:53:12;100635.41;;;19.28;100.00
36380;BME280;22411;53.016;18.632;2023-09-30T02:55:39;100634.22;;;19.22;100.00
36380;BME280;22411;53.016;18.632;2023-09-30T02:58:06;100628.63;;;19.17;100.00
36380;BME280;22411;53.016;18.632;2023-09-30T03:00:34;100626.16;;;19.16;100.00
36380;BME280;22411;53.016;18.632;2023-09-30T03:03:01;100620.56;;;19.19;100.00
36380;BME280;22411;53.016;18.632;2023-09-30T03:05:30;100630.78;;;19.22;100.00
36380;BME280;22411;53.016;18.632;2023-09-30T03:07:59;100637.03;;;19.21;100.00
36380;BME280;22411;53.016;18.632;2023-09-30T03:10:25;100629.63;;;19.16;100.00
36380;BME280;22411;53.016;18.632;2023-09-30T03:12:53;100639.78;;;19.11;100.00
36380;BME280;22411;53.016;18.632;2023-09-30T03:15:19;100637.59;;;19.06;100.00
36380;BME280;22411;53.016;18.632;2023-09-30T03:17:45;100641.41;;;19.12;100.00
36380;BME280;22411;53.016;18.632;2023-09-30T03:20:11;100635.97;;;19.05;100.00
36380;BME280;22411;53.016;18.632;2023-09-30T03:22:42;100641.41;;;19.12;100.00
36380;BME280;22411;53.016;18.632;2023-09-30T03:25:10;100651.09;;;19.12;100.00
36380;BME280;22411;53.016;18.632;2023-09-30T03:27:37;100649.47;;;19.19;100.00
36380;BME280;22411;53.016;18.632;2023-09-30T03:30:05;100655.06;;;19.16;100.00
36380;BME280;22411;53.016;18.632;2023-09-30T03:32:31;100656.88;;;19.15;100.00
36380;BME280;22411;53.016;18.632;2023-09-30T03:35:01;100648.63;;;19.10;100.00
36380;BME280;22411;53.016;18.632;2023-09-30T03:37:27;100649.63;;;19.09;100.00
36380;BME280;22411;53.016;18.632;2023-09-30T03:39:56;100650.09;;;19.04;100.00
36380;BME280;22411;53.016;18.632;2023-09-30T03:42:22;100657.16;;;19.04;100.00
36380;BME280;22411;53.016;18.632;2023-09-30T03:44:48;100656.16;;;19.05;100.00
36380;BME280;22411;53.016;18.632;2023-09-30T03:47:18;100663.34;;;19.03;100.00
36380;BME280;22411;53.016;18.632;2023-09-30T03:49:44;100661.72;;;19.02;100.00
36380;BME280;22411;53.016;18.632;2023-09-30T03:52:11;100661.88;;;19.00;100.00
36380;BME280;22411;53.016;18.632;2023-09-30T03:54:37;100662.03;;;18.99;100.00
36380;BME280;22411;53.016;18.632;2023-09-30T03:57:03;100668.72;;;18.93;100.00
36380;BME280;22411;53.016;18.632;2023-09-30T03:59:29;100668.88;;;18.92;100.00
36380;BME280;22411;53.016;18.632;2023-09-30T04:01:56;100678.81;;;18.80;100.00
36380;BME280;22411;53.016;18.632;2023-09-30T04:04:24;100683.16;;;18.71;100.00
36380;BME280;22411;53.016;18.632;2023-09-30T04:06:49;100683.09;;;18.63;100.00
36380;BME280;22411;53.016;18.632;2023-09-30T04:09:17;100680.56;;;18.53;100.00
36380;BME280;22411;53.016;18.632;2023-09-30T04:11:43;100686.56;;;18.46;100.00
36380;BME280;22411;53.016;18.632;2023-09-30T04:14:09;100697.53;;;18.41;100.00
36380;BME280;22411;53.016;18.632;2023-09-30T04:16:35;100696.31;;;18.36;100.00
36380;BME280;22411;53.016;18.632;2023-09-30T04:19:03;100699.53;;;18.29;100.00
36380;BME280;22411;53.016;18.632;2023-09-30T04:21:30;100696.91;;;18.29;100.00
36380;BME280;22411;53.016;18.632;2023-09-30T04:23:57;100703.81;;;18.31;100.00
36380;BME280;22411;53.016;18.632;2023-09-30T04:26:23;100707.72;;;18.26;100.00
36380;BME280;22411;53.016;18.632;2023-09-30T04:28:49;100708.81;;;18.24;100.00
36380;BME280;22411;53.016;18.632;2023-09-30T04:31:15;100716.19;;;18.20;100.00
36380;BME280;22411;53.016;18.632;2023-09-30T04:33:41;100717.44;;;18.16;100.00
36380;BME280;22411;53.016;18.632;2023-09-30T04:36:06;100719.41;;;18.14;100.00
36380;BME280;22411;53.016;18.632;2023-09-30T04:38:36;100731.53;;;18.15;100.00
36380;BME280;22411;53.016;18.632;2023-09-30T04:41:03;100742.41;;;18.20;100.00
36380;BME280;22411;53.016;18.632;2023-09-30T04:43:29;100738.97;;;18.20;100.00
36380;BME280;22411;53.016;18.632;2023-09-30T04:45:55;100735.53;;;18.19;100.00
36380;BME280;22411;53.016;18.632;2023-09-30T04:48:25;100738.59;;;18.15;100.00
36380;BME280;22411;53.016;18.632;2023-09-30T04:50:51;100743.00;;;18.14;100.00
36380;BME280;22411;53.016;18.632;2023-09-30T04:53:18;100739.53;;;18.14;100.00
36380;BME280;22411;53.016;18.632;2023-09-30T04:55:44;100741.50;;;18.12;100.00
36380;BME280;22411;53.016;18.632;2023-09-30T04:58:10;100760.00;;;18.10;100.00
36380;BME280;22411;53.016;18.632;2023-09-30T05:00:36;100762.53;;;18.02;100.00
36380;BME280;22411;53.016;18.632;2023-09-30T05:03:02;100775.78;;;18.00;100.00
36380;BME280;22411;53.016;18.632;2023-09-30T05:05:30;100778.56;;;17.99;100.00
36380;BME280;22411;53.016;18.632;2023-09-30T05:07:56;100780.88;;;18.02;100.00
36380;BME280;22411;53.016;18.632;2023-09-30T05:10:24;100794.97;;;18.01;100.00
36380;BME280;22411;53.016;18.632;2023-09-30T05:12:50;100795.94;;;18.00;100.00
36380;BME280;22411;53.016;18.632;2023-09-30T05:15:21;100794.31;;;17.99;100.00
36380;BME280;22411;53.016;18.632;2023-09-30T05:17:48;100804.25;;;17.95;100.00
36380;BME280;22411;53.016;18.632;2023-09-30T05:20:14;100816.00;;;17.91;100.00
36380;BME280;22411;53.016;18.632;2023-09-30T05:22:43;100813.09;;;17.94;100.00
36380;BME280;22411;53.016;18.632;2023-09-30T05:25:15;100819.44;;;17.92;100.00
36380;BME280;22411;53.016;18.632;2023-09-30T05:27:42;100823.19;;;17.89;100.00
36380;BME280;22411;53.016;18.632;2023-09-30T05:30:08;100842.38;;;17.90;100.00
36380;BME280;22411;53.016;18.632;2023-09-30T05:32:37;100849.16;;;17.83;100.00
36380;BME280;22411;53.016;18.632;2023-09-30T05:35:07;100854.69;;;17.80;100.00
36380;BME280;22411;53.016;18.632;2023-09-30T05:37:43;100864.50;;;17.68;100.00
36380;BME280;22411;53.016;18.632;2023-09-30T05:40:11;100870.16;;;17.63;100.00
36380;BME280;22411;53.016;18.632;2023-09-30T05:42:53;100876.38;;;17.62;100.00
36380;BME280;22411;53.016;18.632;2023-09-30T05:45:19;100886.03;;;17.52;100.00
36380;BME280;22411;53.016;18.632;2023-09-30T05:47:46;100875.16;;;17.47;100.00
36380;BME280;22411;53.016;18.632;2023-09-30T05:50:11;100878.75;;;17.46;100.00
36380;BME280;22411;53.016;18.632;2023-09-30T05:52:42;100887.00;;;17.51;100.00
36380;BME280;22411;53.016;18.632;2023-09-30T05:55:10;100883.16;;;17.45;100.00
36380;BME280;22411;53.016;18.632;2023-09-30T05:57:36;100887.69;;;17.43;100.00
36380;BME280;22411;53.016;18.632;2023-09-30T06:00:03;100882.75;;;17.40;100.00
36380;BME280;22411;53.016;18.632;2023-09-30T06:02:52;100897.63;;;17.40;100.00
36380;BME280;22411;53.016;18.632;2023-09-30T06:05:18;100895.44;;;17.35;100.00
36380;BME280;22411;53.016;18.632;2023-09-30T06:07:48;100889.66;;;17.32;100.00
36380;BME280;22411;53.016;18.632;2023-09-30T06:10:14;100896.69;;;17.31;100.00
36380;BME280;22411;53.016;18.632;2023-09-30T06:12:46;100896.81;;;17.30;100.00
36380;BME280;22411;53.016;18.632;2023-09-30T06:15:13;100905.91;;;17.25;100.00
36380;BME280;22411;53.016;18.632;2023-09-30T06:17:40;100911.56;;;17.21;100.00
36380;BME280;22411;53.016;18.632;2023-09-30T06:20:06;100914.75;;;17.24;100.00
36380;BME280;22411;53.016;18.632;2023-09-30T06:22:42;100912.13;;;17.24;100.00
36380;BME280;22411;53.016;18.632;2023-09-30T06:25:09;100921.50;;;17.27;100.00
36380;BME280;22411;53.016;18.632;2023-09-30T06:27:35;100925.50;;;17.21;100.00
36380;BME280;22411;53.016;18.632;2023-09-30T06:30:01;100928.66;;;17.15;100.00
36380;BME280;22411;53.016;18.632;2023-09-30T06:32:27;100935.81;;;17.13;100.00
36380;BME280;22411;53.016;18.632;2023-09-30T06:34:52;100931.28;;;17.06;100.00
36380;BME280;22411;53.016;18.632;2023-09-30T06:37:18;100940.25;;;17.03;100.00
36380;BME280;22411;53.016;18.632;2023-09-30T06:39:45;100932.63;;;17.00;100.00
36380;BME280;22411;53.016;18.632;2023-09-30T06:42:11;100941.03;;;16.94;100.00
36380;BME280;22411;53.016;18.632;2023-09-30T06:44:36;100945.59;;;17.02;100.00
36380;BME280;22411;53.016;18.632;2023-09-30T06:47:02;100945.34;;;17.05;100.00
36380;BME280;22411;53.016;18.632;2023-09-30T06:49:28;100958.97;;;16.98;100.00
36380;BME280;22411;53.016;18.632;2023-09-30T06:51:54;100962.84;;;17.04;100.00
36380;BME280;22411;53.016;18.632;2023-09-30T06:54:19;100965.28;;;16.96;100.00
36380;BME280;22411;53.016;18.632;2023-09-30T06:56:45;100971.75;;;16.92;100.00
36380;BME280;22411;53.016;18.632;2023-09-30T06:59:11;100965.84;;;16.90;100.00
36380;BME280;22411;53.016;18.632;2023-09-30T07:01:37;100978.38;;;16.96;100.00
36380;BME280;22411;53.016;18.632;2023-09-30T07:04:02;100988.72;;;16.97;100.00
36380;BME280;22411;53.016;18.632;2023-09-30T07:06:28;100998.34;;;16.97;100.00
36380;BME280;22411;53.016;18.632;2023-09-30T07:08:54;100988.16;;;16.94;100.00
36380;BME280;22411;53.016;18.632;2023-09-30T07:11:27;101004.53;;;16.86;100.00
36380;BME280;22411;53.016;18.632;2023-09-30T07:13:53;101004.00;;;16.83;100.00
36380;BME280;22411;53.016;18.632;2023-09-30T07:16:19;101006.84;;;16.80;100.00
36380;BME280;22411;53.016;18.632;2023-09-30T07:18:45;101013.06;;;16.79;100.00
36380;BME280;22411;53.016;18.632;2023-09-30T07:21:11;101010.63;;;16.66;100.00
36380;BME280;22411;53.016;18.632;2023-09-30T07:23:37;101012.31;;;16.67;100.00
36380;BME280;22411;53.016;18.632;2023-09-30T07:26:03;101027.38;;;16.54;100.00
36380;BME280;22411;53.016;18.632;2023-09-30T07:28:29;101025.47;;;16.56;100.00
36380;BME280;22411;53.016;18.632;2023-09-30T07:30:55;101043.91;;;16.54;100.00
36380;BME280;22411;53.016;18.632;2023-09-30T07:33:20;101006.59;;;16.52;100.00
36380;BME280;22411;53.016;18.632;2023-09-30T07:35:46;101022.97;;;16.54;100.00
36380;BME280;22411;53.016;18.632;2023-09-30T07:38:12;101030.88;;;16.64;100.00
36380;BME280;22411;53.016;18.632;2023-09-30T07:40:38;101027.38;;;16.75;100.00
36380;BME280;22411;53.016;18.632;2023-09-30T07:43:03;101034.56;;;16.82;100.00
36380;BME280;22411;53.016;18.632;2023-09-30T07:45:29;101031.84;;;16.93;100.00
36380;BME280;22411;53.016;18.632;2023-09-30T07:47:55;101044.13;;;16.93;100.00
36380;BME280;22411;53.016;18.632;2023-09-30T07:50:21;101034.84;;;16.58;100.00
36380;BME280;22411;53.016;18.632;2023-09-30T07:52:46;101036.34;;;16.51;100.00
36380;BME280;22411;53.016;18.632;2023-09-30T07:55:12;101035.75;;;16.47;100.00
36380;BME280;22411;53.016;18.632;2023-09-30T07:57:40;101029.84;;;16.45;100.00
36380;BME280;22411;53.016;18.632;2023-09-30T08:00:07;101041.81;;;16.48;100.00
36380;BME280;22411;53.016;18.632;2023-09-30T08:02:34;101038.47;;;16.67;100.00
36380;BME280;22411;53.016;18.632;2023-09-30T08:05:00;101046.25;;;16.78;100.00
36380;BME280;22411;53.016;18.632;2023-09-30T08:07:26;101055.09;;;16.77;100.00
36380;BME280;22411;53.016;18.632;2023-09-30T08:09:52;101063.19;;;16.74;100.00
36380;BME280;22411;53.016;18.632;2023-09-30T08:12:18;101069.72;;;16.89;100.00
36380;BME280;22411;53.016;18.632;2023-09-30T08:14:44;101079.56;;;17.07;100.00
36380;BME280;22411;53.016;18.632;2023-09-30T08:17:10;101085.72;;;16.96;100.00
36380;BME280;22411;53.016;18.632;2023-09-30T08:19:37;101076.47;;;16.92;100.00
36380;BME280;22411;53.016;18.632;2023-09-30T08:22:03;101087.38;;;16.87;100.00
36380;BME280;22411;53.016;18.632;2023-09-30T08:24:32;101088.47;;;16.94;100.00
36380;BME280;22411;53.016;18.632;2023-09-30T08:26:57;101097.84;;;16.97;100.00
36380;BME280;22411;53.016;18.632;2023-09-30T08:29:23;101090.03;;;17.07;100.00
36380;BME280;22411;53.016;18.632;2023-09-30T08:31:49;101082.38;;;17.24;100.00
36380;BME280;22411;53.016;18.632;2023-09-30T08:34:16;101087.47;;;17.26;100.00
36380;BME280;22411;53.016;18.632;2023-09-30T08:36:43;101080.09;;;17.41;100.00
36380;BME280;22411;53.016;18.632;2023-09-30T08:39:09;101081.19;;;17.48;100.00
36380;BME280;22411;53.016;18.632;2023-09-30T08:41:38;101085.84;;;17.44;100.00
36380;BME280;22411;53.016;18.632;2023-09-30T08:44:04;101083.00;;;17.57;100.00
36380;BME280;22411;53.016;18.632;2023-09-30T08:46:33;101085.13;;;17.73;100.00
36380;BME280;22411;53.016;18.632;2023-09-30T08:49:04;101092.38;;;17.60;100.00
36380;BME280;22411;53.016;18.632;2023-09-30T08:51:31;101108.50;;;17.65;100.00
36380;BME280;22411;53.016;18.632;2023-09-30T08:53:58;101115.75;;;17.92;100.00
36380;BME280;22411;53.016;18.632;2023-09-30T08:56:27;101121.00;;;18.11;100.00
36380;BME280;22411;53.016;18.632;2023-09-30T08:58:58;101125.41;;;18.11;100.00
36380;BME280;22411;53.016;18.632;2023-09-30T09:01:25;101128.88;;;18.11;100.00
36380;BME280;22411;53.016;18.632;2023-09-30T09:03:52;101138.09;;;17.96;100.00
36380;BME280;22411;53.016;18.632;2023-09-30T09:06:22;101142.34;;;17.68;100.00
36380;BME280;22411;53.016;18.632;2023-09-30T09:08:48;101145.72;;;17.99;100.00
36380;BME280;22411;53.016;18.632;2023-09-30T09:11:15;101137.56;;;18.12;100.00
36380;BME280;22411;53.016;18.632;2023-09-30T09:13:51;101139.78;;;18.26;100.00
36380;BME280;22411;53.016;18.632;2023-09-30T09:16:21;101134.38;;;18.37;100.00
36380;BME280;22411;53.016;18.632;2023-09-30T09:18:49;101141.25;;;18.38;100.00
36380;BME280;22411;53.016;18.632;2023-09-30T09:23:45;101142.75;;;18.50;100.00
36380;BME280;22411;53.016;18.632;2023-09-30T09:26:12;101147.78;;;18.24;100.00
36380;BME280;22411;53.016;18.632;2023-09-30T09:28:48;101160.75;;;18.16;100.00
36380;BME280;22411;53.016;18.632;2023-09-30T09:31:20;101173.72;;;17.98;100.00
36380;BME280;22411;53.016;18.632;2023-09-30T09:33:48;101173.97;;;17.86;100.00
36380;BME280;22411;53.016;18.632;2023-09-30T09:36:15;101175.25;;;17.61;100.00
36380;BME280;22411;53.016;18.632;2023-09-30T09:38:45;101170.09;;;17.40;100.00
36380;BME280;22411;53.016;18.632;2023-09-30T09:41:11;101157.00;;;17.90;100.00
36380;BME280;22411;53.016;18.632;2023-09-30T09:43:37;101171.81;;;18.20;100.00
36380;BME280;22411;53.016;18.632;2023-09-30T09:46:07;101166.16;;;18.24;100.00
36380;BME280;22411;53.016;18.632;2023-09-30T09:48:35;101167.53;;;18.09;100.00
36380;BME280;22411;53.016;18.632;2023-09-30T09:51:02;101174.44;;;18.10;100.00
36380;BME280;22411;53.016;18.632;2023-09-30T09:53:34;101174.97;;;18.04;100.00
36380;BME280;22411;53.016;18.632;2023-09-30T09:56:00;101175.94;;;18.42;100.00
36380;BME280;22411;53.016;18.632;2023-09-30T09:58:27;101186.41;;;18.61;100.00
36380;BME280;22411;53.016;18.632;2023-09-30T10:00:53;101199.41;;;18.63;100.00
36380;BME280;22411;53.016;18.632;2023-09-30T10:03:19;101176.19;;;18.58;100.00
36380;BME280;22411;53.016;18.632;2023-09-30T10:05:46;101166.00;;;18.36;100.00
36380;BME280;22411;53.016;18.632;2023-09-30T10:08:16;101170.41;;;18.74;100.00
36380;BME280;22411;53.016;18.632;2023-09-30T10:10:57;101164.22;;;19.02;100.00
36380;BME280;22411;53.016;18.632;2023-09-30T10:13:57;101181.31;;;18.79;100.00
36380;BME280;22411;53.016;18.632;2023-09-30T10:19:11;101190.00;;;19.26;100.00
36380;BME280;22411;53.016;18.632;2023-09-30T10:21:38;101202.16;;;19.27;100.00
36380;BME280;22411;53.016;18.632;2023-09-30T10:24:28;101195.13;;;18.71;100.00
36380;BME280;22411;53.016;18.632;2023-09-30T10:30:08;101204.34;;;18.66;100.00
36380;BME280;22411;53.016;18.632;2023-09-30T10:40:50;101207.56;;;19.26;100.00
36380;BME280;22411;53.016;18.632;2023-09-30T10:45:56;101205.69;;;19.46;100.00
36380;BME280;22411;53.016;18.632;2023-09-30T10:50:59;101205.22;;;19.50;97.09
36380;BME280;22411;53.016;18.632;2023-09-30T10:53:29;101192.53;;;19.08;100.00
36380;BME280;22411;53.016;18.632;2023-09-30T10:55:57;101201.16;;;19.38;96.63
36380;BME280;22411;53.016;18.632;2023-09-30T10:58:42;101209.19;;;19.37;96.18
36380;BME280;22411;53.016;18.632;2023-09-30T11:01:09;101221.38;;;19.28;97.40
36380;BME280;22411;53.016;18.632;2023-09-30T11:03:35;101223.91;;;19.20;96.26
36380;BME280;22411;53.016;18.632;2023-09-30T11:06:02;101216.91;;;19.01;100.00
36380;BME280;22411;53.016;18.632;2023-09-30T11:08:29;101205.97;;;19.05;100.00
36380;BME280;22411;53.016;18.632;2023-09-30T11:10:55;101214.22;;;19.20;98.77
36380;BME280;22411;53.016;18.632;2023-09-30T11:13:22;101208.03;;;19.12;100.00
36380;BME280;22411;53.016;18.632;2023-09-30T11:15:59;101211.38;;;19.04;100.00
36380;BME280;22411;53.016;18.632;2023-09-30T11:18:25;101204.69;;;18.72;100.00
36380;BME280;22411;53.016;18.632;2023-09-30T11:21:03;101201.47;;;18.59;99.35
36380;BME280;22411;53.016;18.632;2023-09-30T11:23:29;101212.13;;;18.48;100.00
36380;BME280;22411;53.016;18.632;2023-09-30T11:25:56;101209.28;;;18.98;92.37
36380;BME280;22411;53.016;18.632;2023-09-30T11:28:22;101211.25;;;19.33;87.51
36380;BME280;22411;53.016;18.632;2023-09-30T11:30:56;101215.88;;;20.40;79.08
36380;BME280;22411;53.016;18.632;2023-09-30T11:33:21;101207.72;;;20.86;74.04
36380;BME280;22411;53.016;18.632;2023-09-30T11:38:24;101214.22;;;20.74;68.69
36380;BME280;22411;53.016;18.632;2023-09-30T11:41:03;101219.34;;;20.40;67.74
36380;BME280;22411;53.016;18.632;2023-09-30T11:43:31;101217.63;;;20.13;67.12
36380;BME280;22411;53.016;18.632;2023-09-30T11:46:10;101224.13;;;19.73;70.82
36380;BME280;22411;53.016;18.632;2023-09-30T11:48:37;101222.81;;;19.50;77.01
36380;BME280;22411;53.016;18.632;2023-09-30T11:51:04;101218.44;;;18.94;77.35
36380;BME280;22411;53.016;18.632;2023-09-30T11:53:30;101221.38;;;18.71;81.27
36380;BME280;22411;53.016;18.632;2023-09-30T11:55:57;101220.84;;;18.68;82.56
36380;BME280;22411;53.016;18.632;2023-09-30T11:58:26;101215.84;;;18.74;79.61
36380;BME280;22411;53.016;18.632;2023-09-30T12:00:53;101210.59;;;18.84;82.23
36380;BME280;22411;53.016;18.632;2023-09-30T12:03:19;101217.16;;;19.07;82.95
36380;BME280;22411;53.016;18.632;2023-09-30T12:05:46;101215.41;;;18.89;86.92
36380;BME280;22411;53.016;18.632;2023-09-30T12:08:11;101222.03;;;18.93;87.14
36380;BME280;22411;53.016;18.632;2023-09-30T12:10:39;101222.28;;;19.09;86.70
36380;BME280;22411;53.016;18.632;2023-09-30T12:13:04;101226.72;;;19.46;80.68
36380;BME280;22411;53.016;18.632;2023-09-30T12:15:30;101227.44;;;19.38;79.16
36380;BME280;22411;53.016;18.632;2023-09-30T12:17:56;101232.81;;;19.46;78.79
36380;BME280;22411;53.016;18.632;2023-09-30T12:20:22;101228.38;;;19.47;83.29
36380;BME280;22411;53.016;18.632;2023-09-30T12:22:48;101229.66;;;19.33;84.54
36380;BME280;22411;53.016;18.632;2023-09-30T12:25:14;101225.94;;;18.89;92.03
36380;BME280;22411;53.016;18.632;2023-09-30T12:27:40;101233.66;;;18.80;95.75
36380;BME280;22411;53.016;18.632;2023-09-30T12:30:06;101233.13;;;18.77;97.81
36380;BME280;22411;53.016;18.632;2023-09-30T12:32:32;101225.13;;;18.78;94.43
36380;BME280;22411;53.016;18.632;2023-09-30T12:34:58;101223.59;;;18.76;96.16
36380;BME280;22411;53.016;18.632;2023-09-30T12:37:24;101233.09;;;18.87;97.04
36380;BME280;22411;53.016;18.632;2023-09-30T12:39:49;101224.50;;;19.04;97.05
36380;BME280;22411;53.016;18.632;2023-09-30T12:42:15;101221.28;;;19.20;94.52
36380;BME280;22411;53.016;18.632;2023-09-30T12:44:41;101227.34;;;19.30;94.09
36380;BME280;22411;53.016;18.632;2023-09-30T12:47:07;101222.09;;;19.20;90.99
36380;BME280;22411;53.016;18.632;2023-09-30T12:49:32;101226.66;;;19.18;89.84
36380;BME280;22411;53.016;18.632;2023-09-30T12:51:58;101230.56;;;19.14;87.87
36380;BME280;22411;53.016;18.632;2023-09-30T12:54:25;101228.63;;;19.06;86.18
36380;BME280;22411;53.016;18.632;2023-09-30T12:56:51;101226.38;;;19.21;88.83